Time;durP1;ratioP1;P1;durP2;ratioP2;P2;SDS_P1;SDS_P2;PMS_P1;PMS_P2;Temp;Humidity;BMP_temperature;BMP_pressure;BME280_temperature;BME280_humidity;BME280_pressure;Samples;Min_cycle;Max_cycle;Signal;HPM_P1;HPM_P2
2021/12/30 00:00:14;;;;;;;419.10;187.30;;;;;;;-0.72;100.00;98643.19;2088345;28;20226;-72
2021/12/30 00:01:19;;;;;;;406.38;186.18;;;;;;;-0.75;100.00;98649.72;2088304;28;20234;-72
2021/12/30 00:02:21;;;;;;;407.63;183.82;;;;;;;-0.79;100.00;98643.34;2088361;28;20227;-72
2021/12/30 00:03:23;;;;;;;409.73;184.43;;;;;;;-0.77;100.00;98640.50;2087159;28;20230;-72
2021/12/30 00:04:24;;;;;;;391.38;181.00;;;;;;;-0.77;100.00;98646.53;2087696;28;20219;-72
2021/12/30 00:05:27;;;;;;;418.43;186.63;;;;;;;-0.78;100.00;98641.50;2087598;28;20305;-71
2021/12/30 00:06:29;;;;;;;403.13;183.68;;;;;;;-0.74;100.00;98651.28;2079468;28;20220;-71
2021/12/30 00:07:31;;;;;;;387.90;178.57;;;;;;;-0.75;100.00;98649.72;2079245;28;20255;-71
2021/12/30 00:08:32;;;;;;;388.33;179.00;;;;;;;-0.77;100.00;98651.78;2087640;28;20301;-72
2021/12/30 00:09:34;;;;;;;388.93;177.77;;;;;;;-0.76;100.00;98650.75;2087496;28;20273;-72
2021/12/30 00:10:35;;;;;;;399.33;179.07;;;;;;;-0.72;100.00;98651.06;2087774;28;20318;-72
2021/12/30 00:11:37;;;;;;;411.58;184.95;;;;;;;-0.72;100.00;98653.69;2087678;28;20222;-71
2021/12/30 00:12:38;;;;;;;393.40;175.63;;;;;;;-0.72;100.00;98649.25;2087113;28;20223;-71
2021/12/30 00:13:44;;;;;;;396.57;181.73;;;;;;;-0.70;100.00;98657.66;2087695;28;20266;-71
2021/12/30 00:14:45;;;;;;;392.90;179.20;;;;;;;-0.72;100.00;98659.72;2088340;28;20854;-72
2021/12/30 00:15:47;;;;;;;384.70;175.13;;;;;;;-0.77;100.00;98649.16;2087492;28;20226;-72
2021/12/30 00:16:48;;;;;;;391.23;176.38;;;;;;;-0.73;100.00;98657.34;2087590;28;20214;-71
2021/12/30 00:17:52;;;;;;;388.00;173.55;;;;;;;-0.75;100.00;98654.16;2087467;28;20310;-72
2021/12/30 00:18:52;;;;;;;379.42;176.18;;;;;;;-0.75;100.00;98654.16;2078988;28;20223;-71
2021/12/30 00:19:54;;;;;;;397.10;177.70;;;;;;;-0.74;100.00;98653.91;2079411;28;20235;-72
2021/12/30 00:20:56;;;;;;;382.85;174.82;;;;;;;-0.75;100.00;98651.53;2079203;28;20599;-72
2021/12/30 00:21:58;;;;;;;381.67;177.90;;;;;;;-0.77;100.00;98658.84;2087349;28;20238;-72
2021/12/30 00:23:02;;;;;;;390.17;178.77;;;;;;;-0.74;100.00;98656.53;2087420;28;20222;-72
2021/12/30 00:24:04;;;;;;;387.23;178.55;;;;;;;-0.74;100.00;98651.28;2087621;28;20245;-72
2021/12/30 00:25:06;;;;;;;387.33;177.48;;;;;;;-0.72;100.00;98654.47;2088225;28;20218;-72
2021/12/30 00:26:08;;;;;;;410.33;184.18;;;;;;;-0.73;100.00;98658.13;2087842;28;20624;-72
2021/12/30 00:27:09;;;;;;;394.33;176.23;;;;;;;-0.72;100.00;98666.78;2088023;28;20230;-72
2021/12/30 00:28:12;;;;;;;393.27;176.10;;;;;;;-0.70;100.00;98662.09;2087254;28;20324;-72
2021/12/30 00:29:13;;;;;;;385.17;177.15;;;;;;;-0.71;100.00;98666.53;2087555;28;20222;-72
2021/12/30 00:30:15;;;;;;;387.97;180.00;;;;;;;-0.72;100.00;98662.34;2088305;28;20305;-72
2021/12/30 00:31:16;;;;;;;367.90;171.60;;;;;;;-0.72;100.00;98672.81;2088175;28;20215;-72
2021/12/30 00:32:17;;;;;;;397.90;181.50;;;;;;;-0.72;100.00;98672.00;2087369;28;20249;-72
2021/12/30 00:33:19;;;;;;;411.63;182.60;;;;;;;-0.72;100.00;98679.88;2087382;28;20230;-72
2021/12/30 00:34:20;;;;;;;398.42;178.27;;;;;;;-0.71;100.00;98677.00;2087352;28;20276;-72
2021/12/30 00:35:21;;;;;;;393.92;176.45;;;;;;;-0.68;100.00;98673.94;2087284;28;20219;-72
2021/12/30 00:36:26;;;;;;;375.52;173.63;;;;;;;-0.68;100.00;98671.34;2087141;28;20306;-73
2021/12/30 00:37:27;;;;;;;388.67;172.85;;;;;;;-0.68;100.00;98673.94;2088082;28;20235;-73
2021/12/30 00:38:29;;;;;;;372.57;169.73;;;;;;;-0.69;100.00;98676.81;2088287;28;20302;-72
2021/12/30 00:39:29;;;;;;;377.48;174.23;;;;;;;-0.68;100.00;98676.56;2087404;28;20580;-72
2021/12/30 00:40:32;;;;;;;380.47;172.07;;;;;;;-0.72;100.00;98672.81;2087501;28;20298;-72
2021/12/30 00:41:32;;;;;;;367.40;173.55;;;;;;;-0.68;100.00;98671.34;2087936;28;20233;-72
2021/12/30 00:42:36;;;;;;;407.67;178.47;;;;;;;-0.68;100.00;98679.19;2088161;28;20297;-72
2021/12/30 00:43:39;;;;;;;379.65;174.40;;;;;;;-0.70;100.00;98675.97;2086914;28;20279;-72
2021/12/30 00:44:41;;;;;;;380.17;171.10;;;;;;;-0.72;100.00;98678.03;2079135;28;20226;-72
2021/12/30 00:45:41;;;;;;;385.17;170.32;;;;;;;-0.70;100.00;98681.22;2087407;28;20226;-72
2021/12/30 00:46:43;;;;;;;360.03;171.63;;;;;;;-0.71;100.00;98678.84;2087190;28;20231;-72
2021/12/30 00:47:44;;;;;;;388.98;178.32;;;;;;;-0.72;100.00;98677.25;2087276;28;20317;-72
2021/12/30 00:48:46;;;;;;;384.90;179.87;;;;;;;-0.71;100.00;98682.25;2087336;28;20294;-72
2021/12/30 00:49:48;;;;;;;393.67;179.60;;;;;;;-0.73;100.00;98673.84;2087174;28;20572;-72
2021/12/30 00:50:50;;;;;;;397.42;181.95;;;;;;;-0.72;100.00;98683.28;2087230;28;20223;-72
2021/12/30 00:51:52;;;;;;;387.05;179.50;;;;;;;-0.73;100.00;98681.69;2087200;28;20280;-72
2021/12/30 00:52:54;;;;;;;384.40;177.38;;;;;;;-0.72;100.00;98683.28;2087637;28;20234;-73
2021/12/30 00:53:56;;;;;;;386.63;176.98;;;;;;;-0.73;100.00;98686.94;2088076;28;20234;-72
2021/12/30 00:54:57;;;;;;;400.27;180.10;;;;;;;-0.72;100.00;98685.91;2087802;28;20238;-72
2021/12/30 00:56:00;;;;;;;401.53;181.27;;;;;;;-0.72;100.00;98688.53;2087241;28;20219;-72
2021/12/30 00:57:04;;;;;;;398.02;181.30;;;;;;;-0.71;100.00;98681.47;2087416;28;20446;-72
2021/12/30 00:58:06;;;;;;;403.35;182.45;;;;;;;-0.70;100.00;98688.28;2087271;28;20229;-73
2021/12/30 00:59:07;;;;;;;390.48;174.10;;;;;;;-0.66;100.00;98685.00;2086766;28;20253;-72
2021/12/30 01:00:12;;;;;;;371.20;174.97;;;;;;;-0.64;100.00;98682.94;2087050;28;20239;-73
2021/12/30 01:01:13;;;;;;;393.45;176.57;;;;;;;-0.61;100.00;98687.72;2087269;28;20228;-72
2021/12/30 01:02:15;;;;;;;401.70;180.93;;;;;;;-0.57;100.00;98688.03;2087814;28;20223;-73
2021/12/30 01:03:16;;;;;;;403.80;179.23;;;;;;;-0.59;100.00;98683.03;2088064;28;20221;-73
2021/12/30 01:04:21;;;;;;;386.73;179.07;;;;;;;-0.54;100.00;98684.16;2087477;28;20222;-72
2021/12/30 01:05:22;;;;;;;387.27;177.93;;;;;;;-0.51;100.00;98683.69;2086892;28;20310;-73
2021/12/30 01:06:24;;;;;;;381.80;177.48;;;;;;;-0.53;100.00;98689.16;2087863;28;20258;-72
2021/12/30 01:07:26;;;;;;;390.58;178.07;;;;;;;-0.51;100.00;98688.94;2087588;28;20242;-72
2021/12/30 01:08:28;;;;;;;387.73;180.68;;;;;;;-0.53;100.00;98683.91;2087916;28;20238;-72
2021/12/30 01:09:29;;;;;;;388.48;178.30;;;;;;;-0.54;100.00;98686.75;2086802;28;20241;-72
2021/12/30 01:10:31;;;;;;;385.83;180.00;;;;;;;-0.52;100.00;98692.56;2078762;28;20305;-72
2021/12/30 01:11:35;;;;;;;397.45;177.80;;;;;;;-0.56;100.00;98684.38;2079571;28;20842;-72
2021/12/30 01:12:37;;;;;;;389.20;180.40;;;;;;;-0.58;100.00;98684.63;2087089;28;20250;-72
2021/12/30 01:13:44;;;;;;;396.70;182.32;;;;;;;-0.57;100.00;98696.69;2087341;28;20605;-72
2021/12/30 01:14:46;;;;;;;368.83;174.00;;;;;;;-0.59;100.00;98690.91;2087769;28;20681;-72
2021/12/30 01:15:57;;;;;;;385.75;180.80;;;;;;;-0.60;100.00;98685.88;2087915;28;20218;-72
2021/12/30 01:17:11;;;;;;;387.67;177.27;;;;;;;-0.63;100.00;98686.34;2086579;28;20693;-72
2021/12/30 01:18:33;;;;;;;408.95;182.25;;;;;;;-0.65;100.00;98685.78;2086852;28;20669;-72
2021/12/30 01:19:44;;;;;;;393.88;176.15;;;;;;;-0.63;100.00;98699.44;2087572;28;20689;-72
2021/12/30 01:20:46;;;;;;;389.08;177.13;;;;;;;-0.67;100.00;98691.25;2086581;28;20674;-72
2021/12/30 01:21:48;;;;;;;395.98;184.30;;;;;;;-0.64;100.00;98687.38;2086914;28;20235;-72
2021/12/30 01:22:53;;;;;;;399.80;183.32;;;;;;;-0.63;100.00;98689.75;2087820;28;20392;-72
2021/12/30 01:23:55;;;;;;;389.20;182.75;;;;;;;-0.63;100.00;98681.09;2087473;28;20254;-72
2021/12/30 01:24:57;;;;;;;380.25;178.68;;;;;;;-0.63;100.00;98676.66;2086914;28;20622;-72
2021/12/30 01:25:58;;;;;;;386.20;179.02;;;;;;;-0.61;100.00;98686.91;2087037;28;20222;-72
2021/12/30 01:27:00;;;;;;;378.08;178.82;;;;;;;-0.63;100.00;98676.66;2087822;28;20280;-72
2021/12/30 01:28:01;;;;;;;395.23;173.27;;;;;;;-0.57;100.00;98688.03;2087788;28;20233;-72
2021/12/30 01:29:03;;;;;;;382.07;170.83;;;;;;;-0.52;100.00;98682.91;2087905;28;20250;-73
2021/12/30 01:30:05;;;;;;;382.35;178.50;;;;;;;-0.53;100.00;98683.13;2086973;28;20225;-72
2021/12/30 01:31:13;;;;;;;392.85;177.15;;;;;;;-0.57;100.00;98682.78;2086895;28;20647;-72
2021/12/30 01:32:14;;;;;;;396.95;178.13;;;;;;;-0.53;100.00;98688.34;2086235;28;20265;-72
2021/12/30 01:33:16;;;;;;;398.70;181.77;;;;;;;-0.55;100.00;98690.41;2087002;28;20218;-72
2021/12/30 01:34:17;;;;;;;395.42;178.00;;;;;;;-0.54;100.00;98686.75;2087711;28;20676;-73
2021/12/30 01:35:23;;;;;;;382.50;177.23;;;;;;;-0.55;100.00;98693.03;2087754;28;20618;-72
2021/12/30 01:36:26;;;;;;;376.98;173.45;;;;;;;-0.53;100.00;98690.97;2085904;28;20309;-72
2021/12/30 01:37:28;;;;;;;384.55;176.90;;;;;;;-0.53;100.00;98688.34;2087006;28;20227;-72
2021/12/30 01:38:33;;;;;;;373.50;171.32;;;;;;;-0.54;100.00;98697.25;2086700;28;20222;-72
2021/12/30 01:39:37;;;;;;;393.73;180.15;;;;;;;-0.55;100.00;98696.44;2087030;28;20751;-72
2021/12/30 01:40:40;;;;;;;399.50;179.00;;;;;;;-0.52;100.00;98693.38;2087308;28;20574;-72
2021/12/30 01:41:44;;;;;;;382.58;175.57;;;;;;;-0.50;100.00;98693.16;2087639;28;20639;-72
2021/12/30 01:42:44;;;;;;;375.50;173.45;;;;;;;-0.49;100.00;98697.34;2087667;28;20632;-72
2021/12/30 01:43:46;;;;;;;377.63;174.50;;;;;;;-0.48;100.00;98698.94;2086799;28;20218;-72
2021/12/30 01:44:48;;;;;;;385.35;177.50;;;;;;;-0.47;100.00;98697.91;2086916;28;20249;-72
2021/12/30 01:45:53;;;;;;;383.80;177.82;;;;;;;-0.46;100.00;98704.75;2086823;28;20284;-73
2021/12/30 01:46:55;;;;;;;400.73;181.93;;;;;;;-0.45;100.00;98708.94;2086526;28;20671;-72
2021/12/30 01:47:57;;;;;;;367.17;172.30;;;;;;;-0.43;100.00;98709.53;2087594;28;20233;-72
2021/12/30 01:48:58;;;;;;;390.80;179.40;;;;;;;-0.43;100.00;98706.91;2087634;28;20226;-73
2021/12/30 01:50:00;;;;;;;367.57;174.53;;;;;;;-0.44;100.00;98719.19;2086648;28;20219;-72
2021/12/30 01:51:02;;;;;;;381.92;175.45;;;;;;;-0.45;100.00;98717.59;2086904;28;20219;-73
2021/12/30 01:52:07;;;;;;;383.00;173.23;;;;;;;-0.45;100.00;98714.19;2087522;28;20222;-72
2021/12/30 01:53:10;;;;;;;381.58;178.00;;;;;;;-0.44;100.00;98723.66;2087211;28;20228;-72
2021/12/30 01:54:13;;;;;;;379.45;174.27;;;;;;;-0.43;100.00;98717.41;2086578;28;20229;-72
2021/12/30 01:55:16;;;;;;;372.98;172.07;;;;;;;-0.41;100.00;98715.34;2086897;28;20250;-72
2021/12/30 01:56:18;;;;;;;383.35;173.55;;;;;;;-0.42;100.00;98719.00;2087700;28;20219;-72
2021/12/30 01:57:19;;;;;;;357.45;172.02;;;;;;;-0.41;100.00;98712.72;2087459;28;20307;-73
2021/12/30 01:58:21;;;;;;;371.55;169.98;;;;;;;-0.41;100.00;98708.25;2087521;28;20241;-73
2021/12/30 01:59:23;;;;;;;384.77;174.77;;;;;;;-0.43;100.00;98702.47;2086238;28;20271;-72
2021/12/30 02:00:26;;;;;;;378.38;173.98;;;;;;;-0.42;100.00;98703.25;2086678;28;20693;-72
2021/12/30 02:01:27;;;;;;;381.38;175.23;;;;;;;-0.43;100.00;98706.91;2086584;28;20348;-72
2021/12/30 02:02:28;;;;;;;365.43;172.07;;;;;;;-0.45;100.00;98709.75;2086571;28;20234;-72
2021/12/30 02:03:29;;;;;;;374.77;170.68;;;;;;;-0.47;100.00;98703.16;2087600;28;20226;-73
2021/12/30 02:04:31;;;;;;;373.23;172.47;;;;;;;-0.47;100.00;98708.41;2086203;28;20736;-72
2021/12/30 02:05:33;;;;;;;378.17;171.57;;;;;;;-0.49;100.00;98697.34;2086875;28;20223;-73
2021/12/30 02:06:37;;;;;;;373.60;169.27;;;;;;;-0.51;100.00;98702.03;2086837;28;20223;-73
2021/12/30 02:07:38;;;;;;;369.52;170.77;;;;;;;-0.52;100.00;98698.63;2085845;28;20327;-73
2021/12/30 02:08:40;;;;;;;382.67;170.93;;;;;;;-0.52;100.00;98695.19;2078302;28;20285;-72
2021/12/30 02:09:42;;;;;;;369.70;168.93;;;;;;;-0.53;100.00;98689.16;2078234;28;20227;-72
2021/12/30 02:10:45;;;;;;;384.05;176.05;;;;;;;-0.53;100.00;98693.59;2086682;28;20296;-72
2021/12/30 02:11:47;;;;;;;364.02;175.75;;;;;;;-0.53;100.00;98683.91;2087379;28;20669;-72
2021/12/30 02:12:51;;;;;;;386.95;175.60;;;;;;;-0.55;100.00;98683.34;2087444;28;20226;-72
2021/12/30 02:13:53;;;;;;;372.42;174.63;;;;;;;-0.57;100.00;98683.59;2086437;28;20230;-72
2021/12/30 02:14:55;;;;;;;381.70;176.27;;;;;;;-0.56;100.00;98689.63;2078786;28;20659;-72
2021/12/30 02:16:01;;;;;;;378.67;175.70;;;;;;;-0.58;100.00;98683.81;2086692;28;20237;-72
2021/12/30 02:17:03;;;;;;;384.25;175.52;;;;;;;-0.57;100.00;98683.59;2087397;28;20847;-72
2021/12/30 02:18:04;;;;;;;385.80;173.95;;;;;;;-0.57;100.00;98680.97;2087544;28;20681;-72
2021/12/30 02:19:06;;;;;;;382.15;176.63;;;;;;;-0.59;100.00;98685.66;2087317;28;20229;-72
2021/12/30 02:20:12;;;;;;;388.55;176.20;;;;;;;-0.57;100.00;98677.56;2086953;28;20223;-72
2021/12/30 02:21:14;;;;;;;393.42;174.18;;;;;;;-0.57;100.00;98682.78;2087274;28;20230;-72
2021/12/30 02:22:15;;;;;;;373.92;175.85;;;;;;;-0.58;100.00;98687.25;2087272;28;20226;-72
2021/12/30 02:23:19;;;;;;;367.47;172.27;;;;;;;-0.60;100.00;98686.69;2086696;28;20724;-72
2021/12/30 02:24:20;;;;;;;386.25;172.57;;;;;;;-0.58;100.00;98686.44;2086576;28;20210;-72
2021/12/30 02:25:22;;;;;;;373.60;170.63;;;;;;;-0.60;100.00;98685.88;2087332;28;20729;-72
2021/12/30 02:26:23;;;;;;;376.65;177.50;;;;;;;-0.63;100.00;98688.97;2086040;28;20608;-72
2021/12/30 02:27:26;;;;;;;369.23;170.20;;;;;;;-0.55;100.00;98700.91;2086506;28;20226;-72
2021/12/30 02:28:29;;;;;;;370.48;165.88;;;;;;;-0.50;100.00;98695.78;2086475;28;20232;-72
2021/12/30 02:29:30;;;;;;;376.58;172.13;;;;;;;-0.45;100.00;98701.09;2078314;28;20305;-72
2021/12/30 02:30:31;;;;;;;390.50;174.95;;;;;;;-0.50;100.00;98693.94;2086440;28;20725;-72
2021/12/30 02:31:33;;;;;;;370.00;171.40;;;;;;;-0.48;100.00;98701.56;2078041;28;20656;-72
2021/12/30 02:32:33;;;;;;;388.05;169.50;;;;;;;-0.49;100.00;98699.97;2086448;28;20219;-72
2021/12/30 02:33:37;;;;;;;358.17;162.67;;;;;;;-0.50;100.00;98708.88;2086442;28;20219;-72
2021/12/30 02:34:38;;;;;;;359.55;160.93;;;;;;;-0.51;100.00;98709.91;2086162;28;20226;-72
2021/12/30 02:35:42;;;;;;;359.08;161.23;;;;;;;-0.53;100.00;98706.69;2086731;28;20264;-72
2021/12/30 02:36:42;;;;;;;359.52;162.93;;;;;;;-0.55;100.00;98708.75;2086647;28;20222;-72
2021/12/30 02:37:44;;;;;;;323.53;154.20;;;;;;;-0.57;100.00;98709.00;2086531;28;20308;-72
2021/12/30 02:38:46;;;;;;;333.30;151.00;;;;;;;-0.60;100.00;98705.03;2086494;28;20693;-72
2021/12/30 02:39:52;;;;;;;372.20;167.80;;;;;;;-0.63;100.00;98704.69;2086585;28;20661;-72
2021/12/30 02:40:57;;;;;;;352.85;159.40;;;;;;;-0.65;100.00;98704.13;2086062;28;20219;-72
2021/12/30 02:41:58;;;;;;;341.83;154.55;;;;;;;-0.67;100.00;98709.59;2078516;28;20623;-72
2021/12/30 02:43:00;;;;;;;356.58;163.82;;;;;;;-0.71;100.00;98703.22;2086549;28;20281;-72
2021/12/30 02:44:03;;;;;;;369.88;164.50;;;;;;;-0.72;100.00;98706.84;2086507;28;20218;-72
2021/12/30 02:45:06;;;;;;;367.55;169.85;;;;;;;-0.72;100.00;98711.31;2086566;28;20225;-72
2021/12/30 02:46:07;;;;;;;372.23;170.60;;;;;;;-0.76;100.00;98704.94;2085153;28;20222;-72
2021/12/30 02:47:14;;;;;;;378.30;166.23;;;;;;;-0.75;100.00;98709.16;2086429;28;20249;-72
2021/12/30 02:48:18;;;;;;;357.73;158.43;;;;;;;-0.76;100.00;98700.50;2086357;28;20804;-72
2021/12/30 02:49:20;;;;;;;358.85;158.35;;;;;;;-0.75;100.00;98711.78;2086355;28;20230;-71
2021/12/30 02:50:20;;;;;;;362.23;163.70;;;;;;;-0.74;100.00;98714.16;2086367;28;20279;-71
2021/12/30 02:51:24;;;;;;;374.87;164.50;;;;;;;-0.72;100.00;98711.31;2086546;28;20227;-72
2021/12/30 02:52:25;;;;;;;365.08;161.18;;;;;;;-0.72;100.00;98712.09;2086924;28;20348;-71
2021/12/30 02:53:27;;;;;;;369.00;166.80;;;;;;;-0.70;100.00;98712.66;2087061;28;20230;-71
2021/12/30 02:54:27;;;;;;;342.40;155.85;;;;;;;-0.68;100.00;98710.63;2086228;28;20231;-71
2021/12/30 02:55:29;;;;;;;356.47;159.30;;;;;;;-0.65;100.00;98704.13;2086460;28;20223;-71
2021/12/30 02:56:30;;;;;;;363.95;168.68;;;;;;;-0.66;100.00;98703.31;2086417;28;20301;-71
2021/12/30 02:57:32;;;;;;;379.90;166.77;;;;;;;-0.62;100.00;98709.69;2086502;28;20234;-71
2021/12/30 02:58:33;;;;;;;374.52;171.77;;;;;;;-0.63;100.00;98707.28;2086536;28;20237;-71
2021/12/30 02:59:34;;;;;;;375.70;169.52;;;;;;;-0.63;100.00;98697.63;2087133;28;20303;-72
2021/12/30 03:00:36;;;;;;;383.38;166.93;;;;;;;-0.66;100.00;98698.09;2086272;28;20272;-71
2021/12/30 03:01:40;;;;;;;388.67;170.25;;;;;;;-0.66;100.00;98690.22;2085987;28;20588;-71
2021/12/30 03:02:41;;;;;;;393.30;181.77;;;;;;;-0.69;100.00;98690.69;2086078;28;20242;-71
2021/12/30 03:03:43;;;;;;;395.93;172.33;;;;;;;-0.72;100.00;98691.16;2086199;28;20713;-71
2021/12/30 03:04:44;;;;;;;386.38;172.88;;;;;;;-0.75;100.00;98691.63;2087193;28;20211;-71
2021/12/30 03:05:45;;;;;;;367.37;170.77;;;;;;;-0.76;100.00;98682.16;2087174;28;20317;-70
2021/12/30 03:06:49;;;;;;;382.65;173.20;;;;;;;-0.79;100.00;98680.00;2086200;28;20222;-71
2021/12/30 03:07:51;;;;;;;390.75;176.07;;;;;;;-0.83;100.00;98684.13;2078028;28;20235;-71
2021/12/30 03:08:54;;;;;;;387.20;175.25;;;;;;;-0.86;100.00;98679.34;2085985;28;20245;-72
2021/12/30 03:09:57;;;;;;;400.80;175.48;;;;;;;-0.87;100.00;98675.94;2086862;28;20222;-72
2021/12/30 03:10:59;;;;;;;390.08;175.52;;;;;;;-0.85;100.00;98680.94;2087076;28;20222;-71
2021/12/30 03:12:00;;;;;;;396.25;180.55;;;;;;;-0.90;100.00;98678.19;2086983;28;20225;-71
2021/12/30 03:13:04;;;;;;;383.55;177.63;;;;;;;-0.90;100.00;98679.00;2086310;28;20743;-71
2021/12/30 03:14:06;;;;;;;399.23;177.68;;;;;;;-0.92;100.00;98675.03;2086379;28;20219;-71
2021/12/30 03:15:11;;;;;;;399.75;179.02;;;;;;;-0.93;100.00;98689.16;2086028;28;20219;-71
2021/12/30 03:16:16;;;;;;;392.73;178.40;;;;;;;-0.96;100.00;98684.34;2086071;28;20230;-71
2021/12/30 03:17:17;;;;;;;387.50;175.93;;;;;;;-0.95;100.00;98680.72;2086203;28;20230;-71
2021/12/30 03:18:19;;;;;;;389.33;171.85;;;;;;;-0.94;100.00;98683.13;2086456;28;20219;-71
2021/12/30 03:19:20;;;;;;;380.75;172.00;;;;;;;-0.93;100.00;98684.72;2087792;28;20223;-71
2021/12/30 03:20:22;;;;;;;382.03;173.37;;;;;;;-0.95;100.00;98681.53;2079728;28;20223;-72
2021/12/30 03:21:22;;;;;;;362.60;164.32;;;;;;;-0.95;100.00;98685.97;2087432;28;20289;-71
2021/12/30 03:22:30;;;;;;;376.33;165.90;;;;;;;-0.97;100.00;98686.19;2087831;28;20245;-71
2021/12/30 03:23:31;;;;;;;378.38;168.35;;;;;;;-0.97;100.00;98682.75;2087826;28;20468;-71
2021/12/30 03:24:35;;;;;;;371.95;168.50;;;;;;;-0.99;100.00;98690.06;2079734;28;20239;-71
2021/12/30 03:25:36;;;;;;;391.55;177.20;;;;;;;-1.02;100.00;98691.31;2088108;28;20222;-72
2021/12/30 03:26:38;;;;;;;343.40;155.47;;;;;;;-1.03;100.00;98694.97;2088196;28;20250;-71
2021/12/30 03:27:39;;;;;;;352.30;157.45;;;;;;;-1.00;100.00;98694.50;2087853;28;20222;-71
2021/12/30 03:28:41;;;;;;;353.20;158.43;;;;;;;-0.97;100.00;98706.31;2079504;28;20588;-71
2021/12/30 03:29:42;;;;;;;361.25;165.57;;;;;;;-0.93;100.00;98704.84;2079520;28;20288;-72
2021/12/30 03:30:49;;;;;;;362.70;164.98;;;;;;;-0.91;100.00;98713.28;2087772;28;20215;-72
2021/12/30 03:31:50;;;;;;;362.20;164.77;;;;;;;-0.87;100.00;98711.78;2088627;28;20227;-72
2021/12/30 03:32:52;;;;;;;399.57;176.07;;;;;;;-0.83;100.00;98723.41;2087850;28;20697;-72
2021/12/30 03:33:52;;;;;;;393.33;174.70;;;;;;;-0.79;100.00;98724.53;2079326;28;20238;-72
2021/12/30 03:34:54;;;;;;;378.23;170.97;;;;;;;-0.74;100.00;98724.63;2087898;28;20237;-72
2021/12/30 03:36:00;;;;;;;379.23;171.68;;;;;;;-0.73;100.00;98728.84;2087857;28;20738;-73
2021/12/30 03:37:04;;;;;;;373.85;168.05;;;;;;;-0.71;100.00;98733.84;2080909;28;20231;-72
2021/12/30 03:38:07;;;;;;;359.90;161.82;;;;;;;-0.65;100.00;98738.16;2087865;28;20222;-72
2021/12/30 03:39:09;;;;;;;374.05;166.05;;;;;;;-0.63;100.00;98736.09;2088247;28;20604;-72
2021/12/30 03:40:14;;;;;;;380.08;165.93;;;;;;;-0.61;100.00;98740.13;2087463;28;20600;-72
2021/12/30 03:41:21;;;;;;;364.35;163.30;;;;;;;-0.60;100.00;98733.84;2080096;28;20238;-72
2021/12/30 03:42:22;;;;;;;357.50;160.32;;;;;;;-0.60;100.00;98733.84;2087462;28;20239;-72
2021/12/30 03:43:26;;;;;;;350.17;155.90;;;;;;;-0.55;100.00;98746.22;2087657;28;20313;-73
2021/12/30 03:44:28;;;;;;;364.65;162.10;;;;;;;-0.53;100.00;98740.75;2087989;28;20231;-72
2021/12/30 03:45:30;;;;;;;322.50;146.63;;;;;;;-0.50;100.00;98745.56;2095931;28;20267;-72
2021/12/30 03:46:31;;;;;;;347.45;153.98;;;;;;;-0.49;100.00;98742.69;2088411;28;20234;-72
2021/12/30 03:47:34;;;;;;;367.23;164.97;;;;;;;-0.48;100.00;98746.91;2088485;28;20301;-72
2021/12/30 03:48:41;;;;;;;378.05;164.88;;;;;;;-0.44;100.00;98761.13;2088508;28;20230;-72
2021/12/30 03:49:44;;;;;;;400.75;181.10;;;;;;;-0.45;100.00;98758.75;2095715;28;23041;-72
2021/12/30 03:50:47;;;;;;;394.00;183.80;;;;;;;-0.45;100.00;98756.13;2087735;28;20215;-72
2021/12/30 03:51:51;;;;;;;406.58;180.93;;;;;;;-0.45;100.00;98758.75;2087829;28;20218;-72
2021/12/30 03:52:54;;;;;;;395.33;178.27;;;;;;;-0.50;100.00;98753.41;2087940;28;20313;-72
2021/12/30 03:53:58;;;;;;;381.38;176.75;;;;;;;-0.49;100.00;98763.66;2087646;28;20222;-72
2021/12/30 03:54:59;;;;;;;396.55;180.90;;;;;;;-0.49;100.00;98768.09;2087888;28;20226;-72
2021/12/30 03:56:00;;;;;;;366.97;169.67;;;;;;;-0.51;100.00;98770.97;2088558;28;20230;-72
2021/12/30 03:57:02;;;;;;;356.08;163.85;;;;;;;-0.53;100.00;98762.50;2087409;28;20839;-72
2021/12/30 03:58:05;;;;;;;374.98;168.15;;;;;;;-0.54;100.00;98775.84;2079517;28;20223;-72
2021/12/30 03:59:08;;;;;;;339.45;157.02;;;;;;;-0.58;100.00;98770.28;2078642;28;20746;-72
2021/12/30 04:00:11;;;;;;;363.90;166.52;;;;;;;-0.55;100.00;98776.88;2087806;28;20306;-72
2021/12/30 04:01:14;;;;;;;355.50;164.68;;;;;;;-0.60;100.00;98773.13;2088389;28;20227;-72
2021/12/30 04:02:16;;;;;;;310.98;146.43;;;;;;;-0.57;100.00;98777.91;2088469;28;20238;-72
2021/12/30 04:03:17;;;;;;;336.90;155.65;;;;;;;-0.58;100.00;98778.16;2087542;28;20606;-72
2021/12/30 04:04:27;;;;;;;334.93;154.33;;;;;;;-0.59;100.00;98773.94;2087768;28;20223;-72
2021/12/30 04:05:31;;;;;;;336.67;153.50;;;;;;;-0.59;100.00;98773.94;2095316;28;20271;-72
2021/12/30 04:06:34;;;;;;;356.60;159.05;;;;;;;-0.60;100.00;98777.59;2095460;28;20226;-72
2021/12/30 04:07:35;;;;;;;360.42;166.73;;;;;;;-0.58;100.00;98772.91;2087371;28;20704;-72
2021/12/30 04:08:37;;;;;;;366.93;164.17;;;;;;;-0.58;100.00;98773.69;2079493;28;20218;-72
2021/12/30 04:09:39;;;;;;;355.90;163.65;;;;;;;-0.58;100.00;98768.47;2079039;28;20223;-72
2021/12/30 04:10:41;;;;;;;366.88;167.10;;;;;;;-0.60;100.00;98765.28;2087857;28;20227;-72
2021/12/30 04:11:43;;;;;;;354.75;163.32;;;;;;;-0.58;100.00;98765.84;2087646;28;20254;-72
2021/12/30 04:12:46;;;;;;;359.95;163.25;;;;;;;-0.58;100.00;98771.06;2087710;28;20223;-72
2021/12/30 04:13:47;;;;;;;358.17;161.27;;;;;;;-0.58;100.00;98770.28;2088295;28;20219;-72
2021/12/30 04:14:48;;;;;;;353.53;162.57;;;;;;;-0.58;100.00;98767.66;2088308;28;20687;-72
2021/12/30 04:15:49;;;;;;;355.13;162.38;;;;;;;-0.59;100.00;98763.47;2088368;28;20219;-72
2021/12/30 04:16:51;;;;;;;355.60;164.17;;;;;;;-0.59;100.00;98768.69;2088321;28;20223;-72
2021/12/30 04:17:53;;;;;;;356.83;161.68;;;;;;;-0.61;100.00;98762.88;2087918;28;20230;-72
2021/12/30 04:18:55;;;;;;;364.83;162.93;;;;;;;-0.63;100.00;98768.34;2088279;28;20226;-72
2021/12/30 04:19:56;;;;;;;364.92;166.23;;;;;;;-0.64;100.00;98763.34;2087514;28;20227;-72
2021/12/30 04:20:58;;;;;;;356.13;165.70;;;;;;;-0.65;100.00;98769.59;2087325;28;20227;-72
2021/12/30 04:21:59;;;;;;;353.98;162.93;;;;;;;-0.64;100.00;98768.56;2087517;28;20673;-72
2021/12/30 04:23:00;;;;;;;357.23;162.10;;;;;;;-0.64;100.00;98772.00;2087472;28;20636;-72
2021/12/30 04:24:01;;;;;;;348.02;162.23;;;;;;;-0.67;100.00;98764.59;2087584;28;20215;-72
2021/12/30 04:25:07;;;;;;;354.30;162.88;;;;;;;-0.64;100.00;98772.00;2087556;28;20273;-71
2021/12/30 04:26:08;;;;;;;354.13;163.43;;;;;;;-0.65;100.00;98770.41;2087131;28;20219;-72
2021/12/30 04:27:10;;;;;;;372.40;166.98;;;;;;;-0.66;100.00;98775.88;2087423;28;20604;-72
2021/12/30 04:28:11;;;;;;;361.80;165.18;;;;;;;-0.67;100.00;98772.47;2088278;28;20579;-72
2021/12/30 04:29:12;;;;;;;371.93;167.73;;;;;;;-0.67;100.00;98779.53;2088092;28;20247;-72
2021/12/30 04:30:16;;;;;;;360.58;164.88;;;;;;;-0.67;100.00;98772.47;2087784;28;20276;-72
2021/12/30 04:31:17;;;;;;;374.42;167.25;;;;;;;-0.67;100.00;98771.66;2095682;28;20214;-72
2021/12/30 04:32:19;;;;;;;374.47;169.70;;;;;;;-0.66;100.00;98784.53;2095818;28;20222;-72
2021/12/30 04:33:21;;;;;;;364.55;165.90;;;;;;;-0.67;100.00;98775.09;2087442;28;20621;-72
2021/12/30 04:34:23;;;;;;;364.58;170.90;;;;;;;-0.64;100.00;98771.19;2087044;28;20223;-73
2021/12/30 04:35:23;;;;;;;372.50;170.85;;;;;;;-0.66;100.00;98774.06;2087491;28;20226;-72
2021/12/30 04:36:25;;;;;;;358.37;166.10;;;;;;;-0.67;100.00;98772.47;2087291;28;20749;-72
2021/12/30 04:37:26;;;;;;;343.48;158.10;;;;;;;-0.67;100.00;98772.47;2079012;28;20227;-72